LPMZ weather

Porto Moniz Helipad
Porto Moniz, Autonomous Region of Madeira, Portugal

Public forecast

Using degrees Celsius for public forecast. Weather courtesy of forecast.io.

Closest aviation weather report (METAR) to Porto Moniz Helipad

Closest report is Madeira Airport, 22.2 nm (41.1 km) ESE. Retrieved 2020/06/01 04:30 UTC (16 minutes ago):

LPMA 010430Z VRB02KT 9999 SCT015 SCT030 18/16 Q1013

Closest aviation forecast (TAF) to Porto Moniz Helipad

Closest forecast is Madeira Airport, 22.2 nm (41.1 km) ESE. Retrieved 2020-06-01 00:18 UTC (4 hours ago):

TAF LPMA 312300Z 0100/0124 VRB05KT 9999 SCT015 SCT030 PROB30 TEMPO 0100/0108 BKN015 BECMG 0104/0107 21008KT BECMG 0112/0114 21015KT SCT015 BECMG 0119/0121 5000 -RA BR SCT006 BKN012